createdAt,value
2023-03-30T00:01:17.034Z,99979.25
2023-03-30T00:03:45.309Z,99965.06
2023-03-30T00:06:14.704Z,99962.31
2023-03-30T00:08:41.295Z,99968.47
2023-03-30T00:11:11.748Z,99968.72
2023-03-30T00:13:38.930Z,99953.69
2023-03-30T00:16:07.649Z,99950.16
2023-03-30T00:18:34.483Z,99951.78
2023-03-30T00:21:02.636Z,99951.69
2023-03-30T00:23:31.326Z,99956.00
2023-03-30T00:25:58.114Z,99943.56
2023-03-30T00:28:26.017Z,99942.69
2023-03-30T00:30:53.527Z,99932.13
2023-03-30T00:33:33.642Z,99926.75
2023-03-30T00:36:08.978Z,99922.25
2023-03-30T00:38:35.553Z,99920.34
2023-03-30T00:41:02.546Z,99930.03
2023-03-30T00:43:29.174Z,99929.03
2023-03-30T00:45:57.325Z,99935.06
2023-03-30T00:48:34.459Z,99934.91
2023-03-30T00:51:07.379Z,99939.22
2023-03-30T00:53:37.454Z,99933.91
2023-03-30T00:56:07.254Z,99934.84
2023-03-30T00:58:35.577Z,99935.59
2023-03-30T01:01:04.379Z,99929.31
2023-03-30T01:03:39.102Z,99943.28
2023-03-30T01:06:10.161Z,99944.13
2023-03-30T01:08:37.298Z,99945.06
2023-03-30T01:11:06.789Z,99954.13
2023-03-30T01:13:37.186Z,99951.63
2023-03-30T01:16:19.053Z,99959.66
2023-03-30T01:18:57.697Z,99964.94
2023-03-30T01:21:58.650Z,99953.72
2023-03-30T01:24:48.894Z,99950.25
2023-03-30T01:27:52.800Z,99944.19
2023-03-30T01:30:40.943Z,99945.16
2023-03-30T01:33:26.443Z,99945.09
2023-03-30T01:36:22.862Z,99937.28
2023-03-30T01:39:16.008Z,99938.97
2023-03-30T01:42:33.255Z,99937.16
2023-03-30T01:45:25.345Z,99952.13
2023-03-30T01:48:01.579Z,99954.81
2023-03-30T01:50:34.852Z,99958.34
2023-03-30T01:53:05.128Z,99946.84
2023-03-30T01:55:57.737Z,99942.38
2023-03-30T01:58:28.443Z,99942.44
2023-03-30T02:00:57.076Z,99935.34
2023-03-30T02:03:31.636Z,99933.63
2023-03-30T02:06:09.618Z,99936.28
2023-03-30T02:08:38.059Z,99940.78
2023-03-30T02:11:04.639Z,99955.69
2023-03-30T02:13:32.760Z,99953.88
2023-03-30T02:16:04.941Z,99944.22
2023-03-30T02:18:31.289Z,99939.84
2023-03-30T02:20:58.786Z,99928.41
2023-03-30T02:23:30.360Z,99930.19
2023-03-30T02:25:57.855Z,99931.09
2023-03-30T02:28:24.207Z,99920.59
2023-03-30T02:30:50.569Z,99928.47
2023-03-30T02:33:41.059Z,99922.31
2023-03-30T02:36:07.895Z,99917.03
2023-03-30T02:38:47.714Z,99922.31
2023-03-30T02:41:46.406Z,99906.47
2023-03-30T02:44:42.785Z,99924.16
2023-03-30T02:47:22.134Z,99924.19
2023-03-30T02:50:00.239Z,99935.69
2023-03-30T02:52:50.960Z,99938.31
2023-03-30T02:55:34.508Z,99948.91
2023-03-30T02:58:13.684Z,99956.06
2023-03-30T03:00:50.782Z,99955.16
2023-03-30T03:03:23.909Z,99945.56
2023-03-30T03:05:55.980Z,99956.16
2023-03-30T03:08:25.231Z,99950.00
2023-03-30T03:10:52.170Z,99957.00
2023-03-30T03:13:20.568Z,99957.88
2023-03-30T03:15:47.593Z,99963.22
2023-03-30T03:18:14.012Z,99978.19
2023-03-30T03:20:40.866Z,99965.88
2023-03-30T03:23:07.479Z,99953.50
2023-03-30T03:25:33.771Z,99935.88
2023-03-30T03:28:00.147Z,99912.97
2023-03-30T03:30:26.546Z,99895.31
2023-03-30T03:32:52.868Z,99869.69
2023-03-30T03:35:19.302Z,99862.69
2023-03-30T03:37:45.606Z,99823.88
2023-03-30T03:40:12.085Z,99789.50
2023-03-30T03:42:38.792Z,99773.63
2023-03-30T03:45:05.821Z,99775.44
2023-03-30T03:47:32.398Z,99776.31
2023-03-30T03:49:59.481Z,99801.88
2023-03-30T03:52:25.863Z,99820.50
2023-03-30T03:54:52.238Z,99799.44
2023-03-30T03:57:18.629Z,99818.88
2023-03-30T03:59:45.030Z,99818.88
2023-03-30T04:02:11.628Z,99810.91
2023-03-30T04:04:38.072Z,99802.94
2023-03-30T04:07:05.480Z,99809.16
2023-03-30T04:09:31.957Z,99808.28
2023-03-30T04:11:58.410Z,99792.41
2023-03-30T04:14:24.819Z,99810.94
2023-03-30T04:16:51.260Z,99808.28
2023-03-30T04:19:18.065Z,99814.56
2023-03-30T04:21:49.416Z,99832.22
2023-03-30T04:24:15.790Z,99827.75
2023-03-30T04:26:45.493Z,99816.25
2023-03-30T04:29:11.794Z,99818.06
2023-03-30T04:31:38.461Z,99816.25
2023-03-30T04:34:04.965Z,99808.31
2023-03-30T04:36:31.328Z,99795.94
2023-03-30T04:39:00.525Z,99805.66
2023-03-30T04:41:33.325Z,99803.88
2023-03-30T04:44:05.750Z,99798.59
2023-03-30T04:46:32.668Z,99788.00
2023-03-30T04:48:59.042Z,99797.69
2023-03-30T04:51:25.468Z,99807.41
2023-03-30T04:53:51.815Z,99805.63
2023-03-30T04:56:18.183Z,99820.66
2023-03-30T04:58:44.717Z,99810.97
2023-03-30T05:01:11.147Z,99799.47
2023-03-30T05:03:37.780Z,99793.31
2023-03-30T05:06:04.471Z,99779.22
2023-03-30T05:08:32.941Z,99764.16
2023-03-30T05:11:02.655Z,99797.69
2023-03-30T05:13:29.283Z,99802.03
2023-03-30T05:15:56.965Z,99800.25
2023-03-30T05:18:23.563Z,99802.97
2023-03-30T05:20:49.995Z,99797.69
2023-03-30T05:23:16.389Z,99795.84
2023-03-30T05:25:46.321Z,99806.38
2023-03-30T05:28:12.818Z,99803.66
2023-03-30T05:30:39.136Z,99808.88
2023-03-30T05:33:05.817Z,99800.06
2023-03-30T05:35:32.255Z,99819.47
2023-03-30T05:37:58.654Z,99818.66
2023-03-30T05:40:25.215Z,99820.38
2023-03-30T05:42:51.508Z,99820.31
2023-03-30T05:45:17.835Z,99838.03
2023-03-30T05:47:44.212Z,99830.94
2023-03-30T05:50:11.378Z,99822.09
2023-03-30T05:52:37.806Z,99798.28
2023-03-30T05:55:04.428Z,99803.56
2023-03-30T05:57:30.955Z,99815.91
2023-03-30T05:59:57.426Z,99796.50
2023-03-30T06:02:24.434Z,99808.84
2023-03-30T06:04:51.043Z,99824.81
2023-03-30T06:07:17.944Z,99832.72
2023-03-30T06:09:44.303Z,99849.50
2023-03-30T06:12:10.737Z,99853.06
2023-03-30T06:14:37.035Z,99845.91
2023-03-30T06:17:03.407Z,99848.53
2023-03-30T06:19:29.725Z,99828.25
2023-03-30T06:21:56.187Z,99831.81
2023-03-30T06:24:22.640Z,99840.78
2023-03-30T06:26:49.365Z,99852.28
2023-03-30T06:29:15.669Z,99845.16
2023-03-30T06:31:42.150Z,99824.91
2023-03-30T06:34:08.573Z,99832.09
2023-03-30T06:36:44.410Z,99851.47
2023-03-30T06:39:13.090Z,99854.97
2023-03-30T06:41:39.441Z,99832.00
2023-03-30T06:44:06.710Z,99814.31
2023-03-30T06:46:33.453Z,99786.97
2023-03-30T06:48:59.801Z,99797.56
2023-03-30T06:51:26.428Z,99801.09
2023-03-30T06:53:52.808Z,99786.16
2023-03-30T06:56:19.151Z,99803.00
2023-03-30T06:58:46.799Z,99809.28
2023-03-30T07:01:18.912Z,99801.38
2023-03-30T07:03:45.388Z,99790.88
2023-03-30T07:06:12.282Z,99807.72
2023-03-30T07:08:38.669Z,99812.19
2023-03-30T07:11:06.753Z,99817.47
2023-03-30T07:13:34.351Z,99810.41
2023-03-30T07:16:00.712Z,99798.03
2023-03-30T07:18:27.108Z,99813.91
2023-03-30T07:20:53.439Z,99798.88
2023-03-30T07:23:19.812Z,99782.09
2023-03-30T07:25:46.957Z,99788.28
2023-03-30T07:28:14.167Z,99818.34
2023-03-30T07:30:40.840Z,99836.88
2023-03-30T07:33:07.285Z,99809.44
2023-03-30T07:35:33.828Z,99829.81
2023-03-30T07:38:03.325Z,99807.69
2023-03-30T07:40:31.210Z,99812.06
2023-03-30T07:42:57.809Z,99805.75
2023-03-30T07:45:24.102Z,99816.41
2023-03-30T07:47:50.742Z,99818.16
2023-03-30T07:50:17.221Z,99813.69
2023-03-30T07:52:43.572Z,99811.91
2023-03-30T07:55:10.938Z,99822.53
2023-03-30T07:57:37.262Z,99837.59
2023-03-30T08:00:05.524Z,99852.66
2023-03-30T08:02:32.029Z,99849.97
2023-03-30T08:04:59.952Z,99854.38
2023-03-30T08:07:27.571Z,99840.19
2023-03-30T08:09:54.168Z,99841.88
2023-03-30T08:12:20.560Z,99844.50
2023-03-30T08:14:46.895Z,99846.88
2023-03-30T08:17:13.406Z,99843.81
2023-03-30T08:19:39.740Z,99843.44
2023-03-30T08:22:06.055Z,99836.84
2023-03-30T08:24:34.490Z,99852.47
2023-03-30T08:27:01.494Z,99846.66
2023-03-30T08:29:29.522Z,99846.16
2023-03-30T08:31:55.864Z,99843.63
2023-03-30T08:34:22.216Z,99838.56
2023-03-30T08:36:48.601Z,99832.53
2023-03-30T08:39:15.810Z,99816.59
2023-03-30T08:42:19.753Z,99840.66
2023-03-30T08:44:52.876Z,99832.50
2023-03-30T08:47:31.673Z,99838.91
2023-03-30T08:50:15.208Z,99828.19
2023-03-30T08:52:42.637Z,99832.53
2023-03-30T08:55:22.736Z,99834.69
2023-03-30T08:58:12.998Z,99848.09
2023-03-30T09:01:14.929Z,99843.28
2023-03-30T09:04:19.420Z,99842.06
2023-03-30T09:06:51.673Z,99831.84
2023-03-30T09:09:25.601Z,99835.84
2023-03-30T09:12:16.686Z,99813.09
2023-03-30T09:14:48.611Z,99817.78
2023-03-30T09:17:18.096Z,99825.75
2023-03-30T09:19:57.126Z,99830.28
2023-03-30T09:22:32.249Z,99841.78
2023-03-30T09:24:59.381Z,99836.41
2023-03-30T09:27:45.635Z,99830.25
2023-03-30T09:30:22.187Z,99840.84
2023-03-30T09:32:57.925Z,99839.94
2023-03-30T09:35:32.330Z,99848.59
2023-03-30T09:37:58.650Z,99843.78
2023-03-30T09:40:58.237Z,99852.50
2023-03-30T09:43:35.977Z,99836.84
2023-03-30T09:46:07.034Z,99839.03
2023-03-30T09:48:46.954Z,99832.28
2023-03-30T09:51:23.717Z,99829.22
2023-03-30T09:53:57.993Z,99839.69
2023-03-30T09:56:47.202Z,99822.72
2023-03-30T09:59:29.789Z,99816.44
2023-03-30T10:02:12.435Z,99828.94
2023-03-30T10:04:54.035Z,99833.47
2023-03-30T10:07:27.846Z,99832.25
2023-03-30T10:09:55.031Z,99831.22
2023-03-30T10:12:24.845Z,99826.81
2023-03-30T10:14:55.031Z,99828.94
2023-03-30T10:17:27.335Z,99829.06
2023-03-30T10:22:51.587Z,99817.47
2023-03-30T10:25:21.280Z,99819.00
2023-03-30T10:27:50.237Z,99819.31
2023-03-30T10:30:23.463Z,99825.56
2023-03-30T10:32:51.297Z,99820.69
2023-03-30T10:35:24.530Z,99822.50
2023-03-30T10:37:54.490Z,99808.25
2023-03-30T10:40:42.651Z,99808.94
2023-03-30T10:43:16.864Z,99821.94
2023-03-30T10:45:55.071Z,99812.19
2023-03-30T10:48:31.042Z,99813.78
2023-03-30T10:51:19.361Z,99827.03
2023-03-30T10:53:53.432Z,99806.75
2023-03-30T10:56:25.856Z,99820.91
2023-03-30T10:58:59.743Z,99828.75
2023-03-30T11:02:06.955Z,99817.13
2023-03-30T11:04:39.257Z,99834.97
2023-03-30T11:07:16.567Z,99827.78
2023-03-30T11:09:48.416Z,99821.88
2023-03-30T11:12:20.524Z,99804.78
2023-03-30T11:14:52.964Z,99815.41
2023-03-30T11:17:33.969Z,99816.81
2023-03-30T11:20:17.720Z,99821.59
2023-03-30T11:23:15.033Z,99817.19
2023-03-30T11:25:55.207Z,99816.06
2023-03-30T11:28:36.854Z,99812.53
2023-03-30T11:31:14.662Z,99800.50
2023-03-30T11:33:53.541Z,99803.34
2023-03-30T11:36:55.713Z,99805.81
2023-03-30T11:39:32.545Z,99788.16
2023-03-30T11:42:25.060Z,99773.16
2023-03-30T11:44:52.189Z,99799.94
2023-03-30T11:47:30.691Z,99800.94
2023-03-30T11:50:23.166Z,99803.53
2023-03-30T11:53:08.617Z,99815.34
2023-03-30T11:56:01.304Z,99818.38
2023-03-30T11:58:42.139Z,99810.66
2023-03-30T12:01:09.070Z,99807.94
2023-03-30T12:03:40.124Z,99809.53
2023-03-30T12:06:20.296Z,99806.41
2023-03-30T12:09:13.198Z,99822.06
2023-03-30T12:11:50.357Z,99793.31
2023-03-30T12:14:41.262Z,99796.88
2023-03-30T12:17:25.867Z,99791.13
2023-03-30T12:20:21.557Z,99791.59
2023-03-30T12:22:55.408Z,99773.81
2023-03-30T12:26:00.862Z,99787.97
2023-03-30T12:28:54.887Z,99794.84
2023-03-30T12:31:48.767Z,99803.78
2023-03-30T12:34:15.372Z,99804.97
2023-03-30T12:37:04.478Z,99844.19
2023-03-30T12:39:36.044Z,99857.66
2023-03-30T12:42:07.455Z,99861.31
2023-03-30T12:45:01.565Z,99861.78
2023-03-30T12:47:37.016Z,99851.66
2023-03-30T12:50:15.569Z,99847.59
2023-03-30T12:53:19.647Z,99837.94
2023-03-30T12:56:07.581Z,99835.66
2023-03-30T12:59:08.666Z,99818.63
2023-03-30T13:02:01.492Z,99826.94
2023-03-30T13:04:34.336Z,99825.47
2023-03-30T13:07:07.371Z,99822.13
2023-03-30T13:09:51.900Z,99814.31
2023-03-30T13:12:27.224Z,99816.75
2023-03-30T13:15:18.322Z,99817.34
2023-03-30T13:18:01.049Z,99869.97
2023-03-30T13:20:32.747Z,99872.66
2023-03-30T13:23:26.918Z,99863.41
2023-03-30T13:26:33.872Z,99848.53
2023-03-30T13:29:07.873Z,99837.66
2023-03-30T13:31:56.146Z,99833.84
2023-03-30T13:34:55.179Z,99848.81
2023-03-30T13:38:02.328Z,99848.78
2023-03-30T13:40:41.928Z,99826.41
2023-03-30T13:43:27.868Z,99833.94
2023-03-30T13:46:17.070Z,99831.69
2023-03-30T13:48:52.869Z,99839.81
2023-03-30T13:51:23.405Z,99844.00
2023-03-30T13:54:03.342Z,99831.00
2023-03-30T13:56:33.227Z,99833.63
2023-03-30T13:59:06.172Z,99830.81
2023-03-30T14:01:33.723Z,99839.03
2023-03-30T14:04:03.603Z,99844.81
2023-03-30T14:06:34.184Z,99861.47
2023-03-30T14:09:06.630Z,99867.22
2023-03-30T14:11:36.351Z,99884.66
2023-03-30T14:14:04.066Z,99943.03
2023-03-30T14:16:38.787Z,99903.09
2023-03-30T14:19:22.955Z,99892.63
2023-03-30T14:21:53.639Z,99881.16
2023-03-30T14:24:31.187Z,99876.72
2023-03-30T14:27:07.411Z,99888.22
2023-03-30T14:29:34.136Z,99891.78
2023-03-30T14:34:33.308Z,99931.59
2023-03-30T14:37:03.392Z,99940.44
2023-03-30T14:39:31.713Z,99940.44
2023-03-30T14:42:08.020Z,99942.19
2023-03-30T14:44:39.144Z,99922.72
2023-03-30T14:47:05.858Z,99910.34
2023-03-30T14:49:32.641Z,99899.72
2023-03-30T14:52:14.275Z,99880.13
2023-03-30T14:54:48.687Z,99889.53
2023-03-30T14:57:23.391Z,99878.81
2023-03-30T14:59:59.990Z,99888.59
2023-03-30T15:02:30.831Z,99901.19
2023-03-30T15:04:58.122Z,99908.44
2023-03-30T15:07:30.261Z,99890.84
2023-03-30T15:09:58.820Z,99906.78
2023-03-30T15:12:40.395Z,99904.91
2023-03-30T15:15:08.938Z,99887.91
2023-03-30T15:17:36.689Z,99884.13
2023-03-30T15:20:07.226Z,99893.03
2023-03-30T15:22:40.230Z,99890.53
2023-03-30T15:25:11.593Z,99904.78
2023-03-30T15:27:39.349Z,99901.22
2023-03-30T15:30:06.867Z,99911.81
2023-03-30T15:32:40.239Z,99933.97
2023-03-30T15:35:22.305Z,99921.59
2023-03-30T15:37:58.360Z,99915.38
2023-03-30T15:40:41.063Z,99920.84
2023-03-30T15:43:30.906Z,99909.41
2023-03-30T15:46:12.520Z,99903.22
2023-03-30T15:48:46.065Z,99895.25
2023-03-30T15:51:16.664Z,99903.22
2023-03-30T15:53:46.926Z,99893.44
2023-03-30T15:56:21.728Z,99905.88
2023-03-30T15:58:49.885Z,99902.34
2023-03-30T16:01:16.892Z,99911.19
2023-03-30T16:03:56.500Z,99912.97
2023-03-30T16:06:23.369Z,99912.09
2023-03-30T16:08:49.936Z,99906.75
2023-03-30T16:11:18.494Z,99912.94
2023-03-30T16:13:46.807Z,99896.03
2023-03-30T16:16:14.441Z,99888.03
2023-03-30T16:18:42.761Z,99886.16
2023-03-30T16:21:10.841Z,99887.03
2023-03-30T16:23:38.034Z,99879.06
2023-03-30T16:26:06.215Z,99888.91
2023-03-30T16:28:32.795Z,99880.06
2023-03-30T16:31:05.079Z,99876.41
2023-03-30T16:33:31.816Z,99882.53
2023-03-30T16:35:58.265Z,99890.34
2023-03-30T16:38:24.615Z,99887.47
2023-03-30T16:40:55.077Z,99896.38
2023-03-30T16:43:24.970Z,99890.25
2023-03-30T16:45:51.391Z,99891.31
2023-03-30T16:48:17.921Z,99892.34
2023-03-30T16:50:52.445Z,99900.41
2023-03-30T16:53:18.801Z,99906.72
2023-03-30T16:55:45.437Z,99905.00
2023-03-30T16:58:14.445Z,99922.69
2023-03-30T17:00:46.848Z,99912.13
2023-03-30T17:03:13.914Z,99908.56
2023-03-30T17:05:40.955Z,99912.13
2023-03-30T17:08:16.187Z,99912.09
2023-03-30T17:10:42.684Z,99901.47
2023-03-30T17:13:09.299Z,99913.81
2023-03-30T17:15:38.400Z,99901.44
2023-03-30T17:18:17.549Z,99906.78
2023-03-30T17:20:52.372Z,99903.19
2023-03-30T17:23:23.846Z,99909.38
2023-03-30T17:25:51.427Z,99910.25
2023-03-30T17:28:28.139Z,99908.50
2023-03-30T17:30:57.080Z,99897.88
2023-03-30T17:33:23.610Z,99900.53
2023-03-30T17:35:58.627Z,99909.38
2023-03-30T17:38:25.335Z,99912.03
2023-03-30T17:40:51.970Z,99914.66
2023-03-30T17:43:18.417Z,99899.66
2023-03-30T17:45:46.743Z,99908.47
2023-03-30T17:48:19.027Z,99900.44
2023-03-30T17:50:48.414Z,99907.53
2023-03-30T17:53:16.796Z,99911.06
2023-03-30T17:55:45.794Z,99910.25
2023-03-30T17:58:34.067Z,99916.47
2023-03-30T18:01:03.157Z,99908.50
2023-03-30T18:03:29.897Z,99917.31
2023-03-30T18:05:58.024Z,99914.63
2023-03-30T18:08:25.610Z,99917.25
2023-03-30T18:10:57.332Z,99928.72
2023-03-30T18:13:24.941Z,99924.38
2023-03-30T18:15:54.626Z,99929.66
2023-03-30T18:18:24.590Z,99925.25
2023-03-30T18:20:55.962Z,99927.91
2023-03-30T18:23:23.136Z,99932.34
2023-03-30T18:25:50.046Z,99933.19
2023-03-30T18:28:24.829Z,99926.06
2023-03-30T18:30:53.217Z,99932.25
2023-03-30T18:33:19.642Z,99922.47
2023-03-30T18:35:48.376Z,99933.97
2023-03-30T18:38:18.769Z,99946.31
2023-03-30T18:40:49.255Z,99951.56
2023-03-30T18:43:16.698Z,99952.47
2023-03-30T18:45:46.211Z,99949.81
2023-03-30T18:48:15.278Z,99956.00
2023-03-30T18:50:47.049Z,99964.81
2023-03-30T18:53:15.700Z,99960.50
2023-03-30T18:55:47.209Z,99957.88
2023-03-30T18:58:16.747Z,99962.34
2023-03-30T19:00:43.163Z,99955.28
2023-03-30T19:03:10.522Z,99957.88
2023-03-30T19:05:39.033Z,99958.72
2023-03-30T19:08:05.521Z,99954.28
2023-03-30T19:10:37.071Z,99955.19
2023-03-30T19:13:03.807Z,99952.50
2023-03-30T19:15:33.540Z,99955.09
2023-03-30T19:18:01.158Z,99962.09
2023-03-30T19:20:29.632Z,99967.38
2023-03-30T19:22:56.404Z,99960.28
2023-03-30T19:25:24.638Z,99960.25
2023-03-30T19:30:26.401Z,99952.41
2023-03-30T19:32:58.347Z,99950.72
2023-03-30T19:35:25.559Z,99955.00
2023-03-30T19:37:52.987Z,99954.06
2023-03-30T19:40:20.877Z,99950.44
2023-03-30T19:42:48.430Z,99952.13
2023-03-30T19:45:18.172Z,99945.06
2023-03-30T19:47:44.857Z,99949.47
2023-03-30T19:50:16.692Z,99945.03
2023-03-30T19:52:43.758Z,99946.03
2023-03-30T19:55:10.531Z,99954.03
2023-03-30T19:57:37.660Z,99959.38
2023-03-30T20:00:12.701Z,99964.72
2023-03-30T20:02:43.963Z,99962.06
2023-03-30T20:05:10.844Z,99950.59
2023-03-30T20:07:37.563Z,99951.50
2023-03-30T20:10:11.031Z,99944.44
2023-03-30T20:12:40.083Z,99940.84
2023-03-30T20:15:09.344Z,99938.22
2023-03-30T20:17:36.306Z,99941.75
2023-03-30T20:20:09.075Z,99947.00
2023-03-30T20:22:37.035Z,99943.47
2023-03-30T20:25:04.810Z,99946.09
2023-03-30T20:27:33.574Z,99938.16
2023-03-30T20:30:03.168Z,99936.31
2023-03-30T20:32:29.605Z,99940.69
2023-03-30T20:34:56.086Z,99943.31
2023-03-30T20:37:22.578Z,99935.28
2023-03-30T20:39:51.733Z,99944.00
2023-03-30T20:42:25.764Z,99932.50
2023-03-30T20:44:52.105Z,99928.06
2023-03-30T20:47:23.057Z,99938.66
2023-03-30T20:49:49.548Z,99944.97
2023-03-30T20:52:16.862Z,99950.44
2023-03-30T20:54:44.643Z,99947.00
2023-03-30T20:57:12.064Z,99947.09
2023-03-30T20:59:39.460Z,99942.75
2023-03-30T21:02:05.969Z,99942.81
2023-03-30T21:04:36.326Z,99938.41
2023-03-30T21:07:02.727Z,99937.63
2023-03-30T21:09:29.347Z,99934.97
2023-03-30T21:11:55.865Z,99928.78
2023-03-30T21:14:24.066Z,99919.97
2023-03-30T21:16:50.789Z,99924.41
2023-03-30T21:19:17.206Z,99934.09
2023-03-30T21:21:43.551Z,99928.78
2023-03-30T21:24:11.345Z,99927.88
2023-03-30T21:26:37.988Z,99927.00
2023-03-30T21:29:05.467Z,99914.66
2023-03-30T21:31:32.088Z,99912.00
2023-03-30T21:34:00.832Z,99917.28
2023-03-30T21:36:27.313Z,99916.41
2023-03-30T21:38:55.855Z,99918.19
2023-03-30T21:41:24.083Z,99916.44
2023-03-30T21:43:50.628Z,99913.78
2023-03-30T21:46:20.371Z,99912.88
2023-03-30T21:48:47.726Z,99896.97
2023-03-30T21:51:15.747Z,99891.66
2023-03-30T21:53:44.527Z,99882.84
2023-03-30T21:56:12.188Z,99882.84
